KUG1 OKAS-LSGG
Flight info
| Callsign | KUG1 |
|---|---|
| Flight time | N/A |
| Altitude | 40000 |
| Route | DCT SOLAT G669 NISER DCT TAN R655 KTN R785 NIKAS L619 VESAR UT38 VAPEK UL610 EKSEN UA16 LEMDA UM855 KFK UB545 OSGED UL610 YAA UG12 GOLDO UM603 PEREN UN128 FSK UL608 DISOR DCT MAVAR DCT RETRA DCT TIBRI DCT NERRA DCT TIKSA DCT SIPAL DCT TORPO DCT PETAS DCT BEPMA/N0474F390 DCT GOLAS DCT ENOBA/N0472F400 DCT EVANO/N0471F390 DCT TOP/N0397F180 L50 KUKEV/N0476F300 L50 BANKO BANKO3N |
| Aircraft | A346/H-SDE2E3FGHIJ3J4J5M1RWXY/LB1D1 |
Departure
| Time | N/A |
|---|---|
| Airport | Ali Al Salem Air Base (OKAS) |
Arrival
| Time | 2026-05-01 09:34 |
|---|---|
| Airport | Geneva International Airport (LSGG) |
| Time | Latitude | Longitude | Altitude | Speed | Heading |
|---|---|---|---|---|---|
| 2026-05-01 07:23 | 40.84436 | 23.48922 | 40255 ft | 462 kts | 301° |
| 2026-05-01 07:24 | 40.89877 | 23.38345 | 40255 ft | 462 kts | 301° |
| 2026-05-01 07:24 | 40.93521 | 23.31241 | 40256 ft | 462 kts | 300° |
| 2026-05-01 07:25 | 40.97124 | 23.24199 | 40256 ft | 462 kts | 301° |
| 2026-05-01 07:25 | 41.00731 | 23.17119 | 40256 ft | 461 kts | 301° |
| 2026-05-01 07:26 | 41.04333 | 23.10038 | 40256 ft | 459 kts | 301° |
| 2026-05-01 07:26 | 41.07903 | 23.03001 | 40255 ft | 458 kts | 302° |
| 2026-05-01 07:27 | 41.11723 | 22.96204 | 40254 ft | 458 kts | 307° |
| 2026-05-01 07:27 | 41.15838 | 22.89735 | 40254 ft | 457 kts | 309° |
| 2026-05-01 07:28 | 41.19852 | 22.83153 | 40254 ft | 457 kts | 304° |
| 2026-05-01 07:28 | 41.23239 | 22.75944 | 40254 ft | 457 kts | 298° |
| 2026-05-01 07:29 | 41.25894 | 22.68243 | 40254 ft | 458 kts | 291° |
| 2026-05-01 07:29 | 41.27810 | 22.60140 | 40255 ft | 457 kts | 285° |
| 2026-05-01 07:30 | 41.29433 | 22.51956 | 40257 ft | 457 kts | 285° |
| 2026-05-01 07:30 | 41.31056 | 22.43713 | 40262 ft | 457 kts | 285° |
| 2026-05-01 07:31 | 41.32680 | 22.35453 | 40276 ft | 457 kts | 285° |
| 2026-05-01 07:32 | 41.36698 | 22.14919 | 40304 ft | 457 kts | 284° |
| 2026-05-01 07:33 | 41.39102 | 22.02551 | 40308 ft | 458 kts | 285° |
| 2026-05-01 07:33 | 41.41502 | 21.90122 | 40309 ft | 458 kts | 284° |
| 2026-05-01 07:34 | 41.43885 | 21.77702 | 40308 ft | 458 kts | 284° |
| 2026-05-01 07:35 | 41.45460 | 21.69453 | 40309 ft | 457 kts | 284° |
| 2026-05-01 07:35 | 41.47030 | 21.61191 | 40310 ft | 458 kts | 285° |
| 2026-05-01 07:36 | 41.48602 | 21.52885 | 40309 ft | 457 kts | 284° |
| 2026-05-01 07:36 | 41.50160 | 21.44620 | 40309 ft | 457 kts | 285° |
| 2026-05-01 07:37 | 41.52482 | 21.32226 | 40310 ft | 458 kts | 284° |
| 2026-05-01 07:37 | 41.54027 | 21.23932 | 40300 ft | 457 kts | 284° |
| 2026-05-01 07:38 | 41.55561 | 21.15668 | 40275 ft | 458 kts | 284° |
| 2026-05-01 07:39 | 41.57851 | 21.03213 | 40229 ft | 456 kts | 285° |
| 2026-05-01 07:39 | 41.60120 | 20.90796 | 40206 ft | 457 kts | 288° |
| 2026-05-01 07:40 | 41.61650 | 20.82453 | 40203 ft | 461 kts | 288° |
| 2026-05-01 07:40 | 41.63184 | 20.74083 | 40204 ft | 462 kts | 288° |
| 2026-05-01 07:41 | 41.64705 | 20.65707 | 40200 ft | 461 kts | 289° |
| 2026-05-01 07:42 | 41.67764 | 20.53455 | 40201 ft | 457 kts | 297° |
| 2026-05-01 07:42 | 41.70525 | 20.45787 | 40202 ft | 454 kts | 303° |
| 2026-05-01 07:43 | 41.73785 | 20.38534 | 40202 ft | 452 kts | 306° |
| 2026-05-01 07:43 | 41.78884 | 20.27805 | 40196 ft | 452 kts | 306° |
| 2026-05-01 07:44 | 41.85653 | 20.13481 | 40165 ft | 451 kts | 306° |
| 2026-05-01 07:45 | 41.89017 | 20.06326 | 40156 ft | 452 kts | 306° |
| 2026-05-01 07:45 | 41.92383 | 19.99154 | 40151 ft | 452 kts | 306° |
| 2026-05-01 07:46 | 41.95747 | 19.91966 | 40149 ft | 452 kts | 306° |
| 2026-05-01 07:47 | 42.00799 | 19.81138 | 40150 ft | 452 kts | 306° |
| 2026-05-01 07:47 | 42.04131 | 19.73977 | 40157 ft | 452 kts | 306° |
| 2026-05-01 07:48 | 42.09164 | 19.63128 | 40179 ft | 452 kts | 306° |
| 2026-05-01 07:48 | 42.12503 | 19.55913 | 40194 ft | 453 kts | 306° |
| 2026-05-01 07:49 | 42.17518 | 19.45043 | 40199 ft | 453 kts | 306° |
| 2026-05-01 07:50 | 42.20733 | 19.37693 | 40201 ft | 454 kts | 302° |
| 2026-05-01 07:50 | 42.24567 | 19.25879 | 40200 ft | 459 kts | 293° |
| 2026-05-01 07:51 | 42.26559 | 19.17618 | 40201 ft | 460 kts | 292° |
| 2026-05-01 07:52 | 42.29434 | 19.05284 | 40202 ft | 452 kts | 295° |
| 2026-05-01 07:52 | 42.31318 | 18.97220 | 40202 ft | 448 kts | 296° |
| 2026-05-01 07:53 | 42.34163 | 18.85112 | 40202 ft | 445 kts | 297° |
| 2026-05-01 07:53 | 42.36028 | 18.77134 | 40200 ft | 445 kts | 297° |
| 2026-05-01 07:55 | 42.41098 | 18.57366 | 40200 ft | 436 kts | 303° |
| 2026-05-01 07:56 | 42.48695 | 18.39881 | 40200 ft | 426 kts | 312° |
| 2026-05-01 07:57 | 42.53688 | 18.29806 | 40201 ft | 426 kts | 311° |
| 2026-05-01 07:58 | 42.60318 | 18.16360 | 40201 ft | 427 kts | 311° |
| 2026-05-01 07:59 | 42.66921 | 18.02896 | 40201 ft | 426 kts | 311° |
| 2026-05-01 08:00 | 42.76751 | 17.82744 | 40202 ft | 426 kts | 311° |
| 2026-05-01 08:01 | 42.83344 | 17.69154 | 40221 ft | 426 kts | 311° |
| 2026-05-01 08:02 | 42.88243 | 17.59022 | 40241 ft | 426 kts | 311° |
| 2026-05-01 08:03 | 42.93176 | 17.48865 | 40252 ft | 422 kts | 312° |
| 2026-05-01 08:03 | 42.98106 | 17.38853 | 40255 ft | 419 kts | 312° |
| 2026-05-01 08:04 | 43.04580 | 17.25686 | 40256 ft | 414 kts | 311° |
| 2026-05-01 08:05 | 43.09352 | 17.15756 | 40254 ft | 418 kts | 308° |
| 2026-05-01 08:06 | 43.13263 | 17.04891 | 40257 ft | 426 kts | 301° |
| 2026-05-01 08:07 | 43.16737 | 16.89150 | 40261 ft | 433 kts | 294° |
| 2026-05-01 08:08 | 43.18823 | 16.77081 | 40272 ft | 430 kts | 294° |
| 2026-05-01 08:09 | 43.21564 | 16.61051 | 40281 ft | 429 kts | 294° |
| 2026-05-01 08:09 | 43.22925 | 16.53028 | 40284 ft | 429 kts | 294° |
| 2026-05-01 08:10 | 43.25605 | 16.37097 | 40283 ft | 428 kts | 294° |
| 2026-05-01 08:11 | 43.28287 | 16.21013 | 40283 ft | 430 kts | 294° |
| 2026-05-01 08:12 | 43.30283 | 16.08951 | 40283 ft | 429 kts | 294° |
| 2026-05-01 08:13 | 43.32261 | 15.96911 | 40283 ft | 430 kts | 293° |
| 2026-05-01 08:13 | 43.34233 | 15.84801 | 40284 ft | 430 kts | 294° |
| 2026-05-01 08:14 | 43.35537 | 15.76759 | 40282 ft | 430 kts | 293° |
| 2026-05-01 08:14 | 43.36840 | 15.68681 | 40283 ft | 429 kts | 293° |
| 2026-05-01 08:15 | 43.38782 | 15.56566 | 40287 ft | 429 kts | 293° |
| 2026-05-01 08:16 | 43.40065 | 15.48517 | 40295 ft | 429 kts | 293° |
| 2026-05-01 08:16 | 43.41342 | 15.40468 | 40308 ft | 429 kts | 293° |
| 2026-05-01 08:17 | 43.42615 | 15.32396 | 40321 ft | 430 kts | 292° |
| 2026-05-01 08:17 | 43.43886 | 15.24305 | 40330 ft | 430 kts | 293° |
| 2026-05-01 08:18 | 43.45145 | 15.16258 | 40335 ft | 429 kts | 292° |
| 2026-05-01 08:19 | 43.47626 | 15.00323 | 40338 ft | 428 kts | 291° |
| 2026-05-01 08:19 | 43.48877 | 14.92229 | 40337 ft | 427 kts | 290° |
| 2026-05-01 08:20 | 43.50087 | 14.84332 | 40338 ft | 426 kts | 290° |
| 2026-05-01 08:20 | 43.51303 | 14.76319 | 40338 ft | 426 kts | 290° |
| 2026-05-01 08:21 | 43.52511 | 14.68350 | 40337 ft | 426 kts | 290° |
| 2026-05-01 08:21 | 43.53719 | 14.60368 | 40337 ft | 426 kts | 290° |
| 2026-05-01 08:22 | 43.54916 | 14.52401 | 40340 ft | 426 kts | 290° |
| 2026-05-01 08:22 | 43.56243 | 14.44482 | 40347 ft | 422 kts | 293° |
| 2026-05-01 08:23 | 43.58049 | 14.36808 | 40355 ft | 418 kts | 298° |
| 2026-05-01 08:23 | 43.60162 | 14.29391 | 40361 ft | 417 kts | 298° |
| 2026-05-01 08:24 | 43.62316 | 14.21914 | 40363 ft | 417 kts | 298° |
| 2026-05-01 08:24 | 43.64444 | 14.14516 | 40363 ft | 418 kts | 298° |
| 2026-05-01 08:25 | 43.66579 | 14.07066 | 40363 ft | 417 kts | 298° |
| 2026-05-01 08:25 | 43.68710 | 13.99606 | 40363 ft | 418 kts | 298° |
| 2026-05-01 08:26 | 43.70847 | 13.92107 | 40364 ft | 417 kts | 298° |
| 2026-05-01 08:26 | 43.72969 | 13.84634 | 40364 ft | 418 kts | 298° |
| 2026-05-01 08:27 | 43.75072 | 13.77208 | 40363 ft | 417 kts | 298° |
| 2026-05-01 08:27 | 43.77188 | 13.69707 | 40363 ft | 417 kts | 298° |
| 2026-05-01 08:28 | 43.79288 | 13.62245 | 40364 ft | 418 kts | 298° |
| 2026-05-01 08:28 | 43.81381 | 13.54785 | 40363 ft | 417 kts | 298° |
| 2026-05-01 08:29 | 43.83474 | 13.47305 | 40363 ft | 418 kts | 298° |
| 2026-05-01 08:29 | 43.85571 | 13.39788 | 40362 ft | 417 kts | 298° |
| 2026-05-01 08:30 | 43.87648 | 13.32311 | 40364 ft | 417 kts | 298° |
| 2026-05-01 08:30 | 43.89732 | 13.24795 | 40364 ft | 418 kts | 298° |
| 2026-05-01 08:31 | 43.91813 | 13.17272 | 40364 ft | 418 kts | 297° |
| 2026-05-01 08:31 | 43.93884 | 13.09782 | 40363 ft | 419 kts | 297° |
| 2026-05-01 08:32 | 43.95972 | 13.02193 | 40363 ft | 421 kts | 296° |
| 2026-05-01 08:32 | 43.98042 | 12.94639 | 40363 ft | 424 kts | 295° |
| 2026-05-01 08:33 | 44.00129 | 12.86974 | 40363 ft | 424 kts | 295° |
| 2026-05-01 08:33 | 44.02209 | 12.79311 | 40363 ft | 424 kts | 295° |
| 2026-05-01 08:34 | 44.04278 | 12.71671 | 40363 ft | 424 kts | 295° |
| 2026-05-01 08:34 | 44.06347 | 12.64023 | 40364 ft | 424 kts | 295° |
| 2026-05-01 08:35 | 44.08395 | 12.56416 | 40368 ft | 425 kts | 296° |
| 2026-05-01 08:35 | 44.10413 | 12.48906 | 40386 ft | 425 kts | 295° |
| 2026-05-01 08:36 | 44.12518 | 12.41049 | 40398 ft | 425 kts | 295° |
| 2026-05-01 08:36 | 44.14568 | 12.33370 | 40408 ft | 425 kts | 295° |
| 2026-05-01 08:37 | 44.16618 | 12.25669 | 40412 ft | 425 kts | 295° |
| 2026-05-01 08:37 | 44.18673 | 12.17922 | 40415 ft | 425 kts | 295° |
| 2026-05-01 08:38 | 44.20743 | 12.10094 | 40413 ft | 426 kts | 295° |
| 2026-05-01 08:38 | 44.22798 | 12.02299 | 40407 ft | 425 kts | 295° |
| 2026-05-01 08:39 | 44.24891 | 11.94533 | 40398 ft | 423 kts | 298° |
| 2026-05-01 08:39 | 44.27509 | 11.87130 | 40396 ft | 422 kts | 301° |
| 2026-05-01 08:40 | 44.31510 | 11.76127 | 40393 ft | 422 kts | 301° |
| 2026-05-01 08:40 | 44.34172 | 11.68743 | 40394 ft | 422 kts | 301° |
| 2026-05-01 08:41 | 44.36828 | 11.61342 | 40397 ft | 422 kts | 301° |
| 2026-05-01 08:41 | 44.39472 | 11.53953 | 40403 ft | 422 kts | 301° |
| 2026-05-01 08:42 | 44.42098 | 11.46586 | 40410 ft | 421 kts | 301° |
| 2026-05-01 08:42 | 44.44696 | 11.39280 | 40415 ft | 422 kts | 301° |
| 2026-05-01 08:43 | 44.47277 | 11.31997 | 40418 ft | 422 kts | 300° |
| 2026-05-01 08:43 | 44.49873 | 11.24655 | 40417 ft | 422 kts | 300° |
| 2026-05-01 08:44 | 44.52485 | 11.17249 | 40418 ft | 422 kts | 300° |
| 2026-05-01 08:44 | 44.55074 | 11.09890 | 40417 ft | 422 kts | 300° |
| 2026-05-01 08:45 | 44.57674 | 11.02476 | 40417 ft | 422 kts | 300° |
| 2026-05-01 08:45 | 44.60265 | 10.95091 | 40417 ft | 424 kts | 299° |
| 2026-05-01 08:46 | 44.62871 | 10.87632 | 40416 ft | 428 kts | 298° |
| 2026-05-01 08:46 | 44.65504 | 10.80066 | 40416 ft | 432 kts | 298° |
| 2026-05-01 08:47 | 44.68126 | 10.72494 | 40417 ft | 434 kts | 298° |
| 2026-05-01 08:47 | 44.70773 | 10.64825 | 40417 ft | 434 kts | 298° |
| 2026-05-01 08:48 | 44.73375 | 10.57276 | 40417 ft | 434 kts | 298° |
| 2026-05-01 08:48 | 44.76010 | 10.49611 | 40417 ft | 434 kts | 298° |
| 2026-05-01 08:49 | 44.78650 | 10.41914 | 40417 ft | 434 kts | 298° |
| 2026-05-01 08:49 | 44.81256 | 10.34292 | 40418 ft | 434 kts | 297° |
| 2026-05-01 08:50 | 44.83753 | 10.26967 | 40418 ft | 434 kts | 297° |
| 2026-05-01 08:50 | 44.86340 | 10.19365 | 40418 ft | 434 kts | 297° |
| 2026-05-01 08:51 | 44.88941 | 10.11695 | 40418 ft | 434 kts | 297° |
| 2026-05-01 08:51 | 44.91539 | 10.04012 | 40415 ft | 434 kts | 297° |
| 2026-05-01 08:52 | 44.94091 | 9.96441 | 40379 ft | 433 kts | 297° |
| 2026-05-01 08:52 | 44.96645 | 9.88846 | 40303 ft | 433 kts | 297° |
| 2026-05-01 08:53 | 44.99188 | 9.81259 | 40197 ft | 432 kts | 297° |
| 2026-05-01 08:53 | 45.01772 | 9.73533 | 40109 ft | 431 kts | 297° |
| 2026-05-01 08:54 | 45.04299 | 9.65952 | 40061 ft | 429 kts | 297° |
| 2026-05-01 08:54 | 45.06836 | 9.58320 | 40038 ft | 427 kts | 297° |
| 2026-05-01 08:55 | 45.09352 | 9.50725 | 40043 ft | 426 kts | 297° |
| 2026-05-01 08:55 | 45.11832 | 9.43225 | 40099 ft | 424 kts | 297° |
| 2026-05-01 08:56 | 45.14241 | 9.35912 | 40185 ft | 424 kts | 297° |
| 2026-05-01 08:56 | 45.16698 | 9.28435 | 40278 ft | 423 kts | 296° |
| 2026-05-01 08:57 | 45.19167 | 9.20907 | 40344 ft | 422 kts | 296° |
| 2026-05-01 08:57 | 45.21594 | 9.13487 | 40380 ft | 422 kts | 296° |
| 2026-05-01 08:58 | 45.24027 | 9.06033 | 40398 ft | 423 kts | 296° |
| 2026-05-01 08:58 | 45.26452 | 8.98587 | 40407 ft | 426 kts | 295° |
| 2026-05-01 08:59 | 45.28876 | 8.91061 | 40411 ft | 430 kts | 293° |
| 2026-05-01 08:59 | 45.30421 | 8.82855 | 40266 ft | 435 kts | 279° |
| 2026-05-01 09:00 | 45.30600 | 8.78606 | 40018 ft | 436 kts | 272° |
| 2026-05-01 09:00 | 45.30376 | 8.74327 | 39770 ft | 436 kts | 265° |
| 2026-05-01 09:00 | 45.29751 | 8.70106 | 39521 ft | 437 kts | 258° |
| 2026-05-01 09:00 | 45.28755 | 8.66104 | 39276 ft | 438 kts | 251° |
| 2026-05-01 09:01 | 45.27336 | 8.62189 | 39024 ft | 442 kts | 244° |
| 2026-05-01 09:01 | 45.25691 | 8.58442 | 38776 ft | 443 kts | 243° |
| 2026-05-01 09:01 | 45.24022 | 8.54758 | 38528 ft | 443 kts | 242° |
| 2026-05-01 09:01 | 45.22329 | 8.51043 | 38276 ft | 443 kts | 242° |
| 2026-05-01 09:02 | 45.20644 | 8.47351 | 38026 ft | 443 kts | 242° |
| 2026-05-01 09:02 | 45.18982 | 8.43706 | 37779 ft | 443 kts | 242° |
| 2026-05-01 09:02 | 45.17275 | 8.39968 | 37525 ft | 443 kts | 242° |
| 2026-05-01 09:02 | 45.15591 | 8.36281 | 37275 ft | 443 kts | 242° |
| 2026-05-01 09:03 | 45.13910 | 8.32603 | 37028 ft | 443 kts | 242° |
| 2026-05-01 09:03 | 45.12242 | 8.28960 | 36781 ft | 443 kts | 242° |
| 2026-05-01 09:03 | 45.10536 | 8.25233 | 36527 ft | 443 kts | 242° |
| 2026-05-01 09:03 | 45.08861 | 8.21581 | 36279 ft | 443 kts | 242° |
| 2026-05-01 09:04 | 45.07156 | 8.17866 | 36025 ft | 443 kts | 242° |
| 2026-05-01 09:04 | 45.05721 | 8.14744 | 35813 ft | 444 kts | 242° |
| 2026-05-01 09:04 | 45.03869 | 8.10716 | 35538 ft | 445 kts | 242° |
| 2026-05-01 09:04 | 45.02170 | 8.07024 | 35288 ft | 446 kts | 242° |
| 2026-05-01 09:05 | 45.00479 | 8.03360 | 35039 ft | 446 kts | 242° |
| 2026-05-01 09:05 | 44.98839 | 7.99733 | 34790 ft | 444 kts | 246° |
| 2026-05-01 09:05 | 44.97717 | 7.95928 | 34543 ft | 437 kts | 258° |
| 2026-05-01 09:05 | 44.97277 | 7.91582 | 34282 ft | 430 kts | 272° |
| 2026-05-01 09:06 | 44.97579 | 7.87590 | 34043 ft | 427 kts | 284° |
| 2026-05-01 09:06 | 44.98616 | 7.83568 | 33786 ft | 425 kts | 297° |
| 2026-05-01 09:06 | 45.00265 | 7.80143 | 33538 ft | 427 kts | 310° |
| 2026-05-01 09:06 | 45.02481 | 7.77333 | 33287 ft | 432 kts | 322° |
| 2026-05-01 09:07 | 45.04992 | 7.75011 | 33047 ft | 434 kts | 325° |
| 2026-05-01 09:07 | 45.07557 | 7.72732 | 32797 ft | 435 kts | 326° |
| 2026-05-01 09:07 | 45.10119 | 7.70471 | 32548 ft | 437 kts | 325° |
| 2026-05-01 09:07 | 45.12703 | 7.68185 | 32298 ft | 438 kts | 325° |
| 2026-05-01 09:08 | 45.15272 | 7.65902 | 32052 ft | 439 kts | 325° |
| 2026-05-01 09:08 | 45.17863 | 7.63592 | 31802 ft | 440 kts | 325° |
| 2026-05-01 09:08 | 45.20462 | 7.61269 | 31552 ft | 441 kts | 325° |
| 2026-05-01 09:08 | 45.23060 | 7.58943 | 31302 ft | 442 kts | 325° |
| 2026-05-01 09:09 | 45.25654 | 7.56617 | 31054 ft | 443 kts | 325° |
| 2026-05-01 09:09 | 45.28264 | 7.54275 | 30803 ft | 444 kts | 325° |
| 2026-05-01 09:09 | 45.30860 | 7.51943 | 30555 ft | 445 kts | 326° |
| 2026-05-01 09:09 | 45.33458 | 7.49608 | 30416 ft | 446 kts | 326° |
| 2026-05-01 09:10 | 45.38646 | 7.44939 | 30362 ft | 447 kts | 326° |
| 2026-05-01 09:10 | 45.41259 | 7.42585 | 30118 ft | 447 kts | 326° |
| 2026-05-01 09:10 | 45.43888 | 7.40212 | 29867 ft | 448 kts | 326° |
| 2026-05-01 09:11 | 45.46534 | 7.37822 | 29616 ft | 449 kts | 326° |
| 2026-05-01 09:11 | 45.49178 | 7.35433 | 29366 ft | 450 kts | 326° |
| 2026-05-01 09:11 | 45.51821 | 7.33040 | 29119 ft | 451 kts | 325° |
| 2026-05-01 09:11 | 45.54452 | 7.30654 | 28869 ft | 450 kts | 325° |
| 2026-05-01 09:12 | 45.57011 | 7.28331 | 28570 ft | 448 kts | 325° |
| 2026-05-01 09:12 | 45.59568 | 7.26006 | 28210 ft | 446 kts | 325° |
| 2026-05-01 09:12 | 45.62135 | 7.23667 | 27815 ft | 444 kts | 325° |
| 2026-05-01 09:12 | 45.64742 | 7.21288 | 27325 ft | 440 kts | 325° |
| 2026-05-01 09:13 | 45.67136 | 7.19102 | 26852 ft | 436 kts | 325° |
| 2026-05-01 09:13 | 45.69753 | 7.16709 | 26330 ft | 432 kts | 325° |
| 2026-05-01 09:13 | 45.72131 | 7.14532 | 25867 ft | 428 kts | 325° |
| 2026-05-01 09:13 | 45.74733 | 7.12144 | 25476 ft | 428 kts | 325° |
| 2026-05-01 09:14 | 45.77048 | 7.10018 | 25407 ft | 430 kts | 325° |
| 2026-05-01 09:14 | 45.79513 | 7.07631 | 25406 ft | 430 kts | 320° |
| 2026-05-01 09:14 | 45.81799 | 7.04788 | 25407 ft | 428 kts | 313° |
| 2026-05-01 09:14 | 45.83190 | 7.02633 | 25408 ft | 427 kts | 309° |
| 2026-05-01 09:15 | 45.86359 | 6.96380 | 25410 ft | 425 kts | 303° |
| 2026-05-01 09:15 | 45.87071 | 6.94880 | 25409 ft | 425 kts | 303° |
| 2026-05-01 09:16 | 45.88819 | 6.91177 | 25289 ft | 420 kts | 302° |
| 2026-05-01 09:16 | 45.90436 | 6.87755 | 24613 ft | 418 kts | 303° |
| 2026-05-01 09:17 | 45.93844 | 6.80560 | 23089 ft | 415 kts | 303° |
| 2026-05-01 09:17 | 46.02711 | 6.61519 | 19382 ft | 396 kts | 302° |
| 2026-05-01 09:18 | 46.04236 | 6.58218 | 18733 ft | 392 kts | 302° |
| 2026-05-01 09:18 | 46.07261 | 6.51751 | 17461 ft | 386 kts | 303° |
| 2026-05-01 09:19 | 46.10242 | 6.45460 | 16372 ft | 375 kts | 303° |
| 2026-05-01 09:19 | 46.11688 | 6.42404 | 15955 ft | 368 kts | 303° |
| 2026-05-01 09:19 | 46.12651 | 6.40365 | 15681 ft | 363 kts | 303° |
| 2026-05-01 09:20 | 46.15808 | 6.33664 | 14894 ft | 344 kts | 302° |
| 2026-05-01 09:20 | 46.18132 | 6.28428 | 14662 ft | 318 kts | 290° |
| 2026-05-01 09:21 | 46.17689 | 6.22483 | 14256 ft | 304 kts | 239° |
| 2026-05-01 09:21 | 46.16288 | 6.20195 | 13981 ft | 301 kts | 228° |
| 2026-05-01 09:21 | 46.13397 | 6.16024 | 13240 ft | 293 kts | 228° |
| 2026-05-01 09:22 | 46.10595 | 6.11916 | 12604 ft | 283 kts | 229° |
| 2026-05-01 09:22 | 46.07911 | 6.07990 | 12026 ft | 275 kts | 228° |
| 2026-05-01 09:23 | 46.06563 | 6.06049 | 11735 ft | 272 kts | 228° |
| 2026-05-01 09:23 | 46.03909 | 6.02228 | 11155 ft | 267 kts | 228° |
| 2026-05-01 09:24 | 46.01313 | 5.98486 | 10592 ft | 263 kts | 228° |
| 2026-05-01 09:24 | 46.00008 | 5.96606 | 10305 ft | 262 kts | 228° |
| 2026-05-01 09:24 | 45.97503 | 5.93010 | 10047 ft | 243 kts | 228° |
| 2026-05-01 09:25 | 45.95193 | 5.89694 | 9941 ft | 230 kts | 228° |
| 2026-05-01 09:25 | 45.93265 | 5.86450 | 9314 ft | 213 kts | 254° |
| 2026-05-01 09:26 | 45.93346 | 5.84354 | 8506 ft | 222 kts | 292° |
| 2026-05-01 09:26 | 45.95766 | 5.81834 | 7210 ft | 230 kts | 345° |
| 2026-05-01 09:26 | 45.97339 | 5.81332 | 6821 ft | 229 kts | 347° |
| 2026-05-01 09:27 | 46.00456 | 5.80360 | 6628 ft | 229 kts | 347° |
| 2026-05-01 09:27 | 46.02047 | 5.80276 | 6533 ft | 232 kts | 10° |
| 2026-05-01 09:27 | 46.03493 | 5.81300 | 6374 ft | 235 kts | 33° |
| 2026-05-01 09:28 | 46.04728 | 5.82845 | 6283 ft | 235 kts | 41° |
| 2026-05-01 09:28 | 46.05889 | 5.84483 | 6087 ft | 229 kts | 43° |
| 2026-05-01 09:28 | 46.06978 | 5.86084 | 5786 ft | 219 kts | 44° |
| 2026-05-01 09:28 | 46.08023 | 5.87636 | 5482 ft | 211 kts | 44° |
| 2026-05-01 09:29 | 46.09977 | 5.90537 | 4942 ft | 192 kts | 44° |
| 2026-05-01 09:29 | 46.10879 | 5.91871 | 4695 ft | 182 kts | 44° |
| 2026-05-01 09:30 | 46.12535 | 5.94317 | 4240 ft | 159 kts | 44° |
| 2026-05-01 09:30 | 46.13280 | 5.95415 | 4026 ft | 145 kts | 44° |
| 2026-05-01 09:30 | 46.14673 | 5.97464 | 3667 ft | 142 kts | 45° |
| 2026-05-01 09:31 | 46.15367 | 5.98487 | 3487 ft | 142 kts | 44° |
| 2026-05-01 09:31 | 46.16055 | 5.99497 | 3307 ft | 141 kts | 45° |
| 2026-05-01 09:31 | 46.17422 | 6.01510 | 2934 ft | 141 kts | 45° |
| 2026-05-01 09:32 | 46.18108 | 6.02519 | 2742 ft | 140 kts | 44° |
| 2026-05-01 09:32 | 46.19461 | 6.04508 | 2364 ft | 140 kts | 46° |
| 2026-05-01 09:32 | 46.20134 | 6.05497 | 2180 ft | 140 kts | 45° |
| 2026-05-01 09:33 | 46.20809 | 6.06489 | 1992 ft | 139 kts | 45° |
| 2026-05-01 09:33 | 46.21493 | 6.07486 | 1807 ft | 139 kts | 45° |
| 2026-05-01 09:33 | 46.22850 | 6.09490 | 1446 ft | 139 kts | 46° |
| 2026-05-01 09:34 | 46.23426 | 6.10335 | 1428 ft | 79 kts | 45° |
| 2026-05-01 09:34 | 46.23670 | 6.10695 | 1428 ft | 32 kts | 46° |
| 2026-05-01 09:34 | 46.23852 | 6.11020 | 1428 ft | 13 kts | 112° |
| 2026-05-01 09:35 | 46.23781 | 6.11080 | 1428 ft | 12 kts | 174° |
| 2026-05-01 09:35 | 46.23671 | 6.11034 | 1428 ft | 11 kts | 225° |
| 2026-05-01 09:35 | 46.23609 | 6.10940 | 1428 ft | 14 kts | 225° |
| 2026-05-01 09:36 | 46.23531 | 6.10825 | 1428 ft | 17 kts | 226° |
| 2026-05-01 09:36 | 46.23478 | 6.10745 | 1428 ft | 11 kts | 226° |
| 2026-05-01 09:36 | 46.23430 | 6.10683 | 1428 ft | 3 kts | 183° |
| 2026-05-01 09:36 | 46.23403 | 6.10717 | 1428 ft | 7 kts | 129° |
| 2026-05-01 09:37 | 46.23363 | 6.10790 | 1428 ft | 10 kts | 107° |
| 2026-05-01 09:37 | 46.23464 | 6.11006 | 1428 ft | 11 kts | 45° |
| 2026-05-01 09:37 | 46.23505 | 6.11065 | 1428 ft | 6 kts | 45° |
| 2026-05-01 09:38 | 46.23495 | 6.11162 | 1428 ft | 4 kts | 132° |
| 2026-05-01 09:38 | 46.23486 | 6.11175 | 1428 ft | 1 kts | 136° |
| 2026-05-01 09:38 | 46.23481 | 6.11183 | 1428 ft | 0 kts | 136° |